sensor_id;sensor_type;location;lat;lon;timestamp;temperature;humidity
16767;DHT22;8501;49.926;8.404;2024-03-02T00:01:12;6.10;99.90
16767;DHT22;8501;49.926;8.404;2024-03-02T00:03:38;6.00;99.90
16767;DHT22;8501;49.926;8.404;2024-03-02T00:06:04;6.00;99.90
16767;DHT22;8501;49.926;8.404;2024-03-02T00:08:30;6.00;99.90
16767;DHT22;8501;49.926;8.404;2024-03-02T00:10:59;6.00;99.90
16767;DHT22;8501;49.926;8.404;2024-03-02T00:13:25;6.00;99.90
16767;DHT22;8501;49.926;8.404;2024-03-02T00:15:55;6.10;99.90
16767;DHT22;8501;49.926;8.404;2024-03-02T00:18:26;6.00;99.90
16767;DHT22;8501;49.926;8.404;2024-03-02T00:20:56;6.00;99.90
16767;DHT22;8501;49.926;8.404;2024-03-02T00:23:27;6.10;99.90
16767;DHT22;8501;49.926;8.404;2024-03-02T00:25:55;6.00;99.90
16767;DHT22;8501;49.926;8.404;2024-03-02T00:28:34;5.80;99.90
16767;DHT22;8501;49.926;8.404;2024-03-02T00:31:11;5.90;99.90
16767;DHT22;8501;49.926;8.404;2024-03-02T00:33:44;5.90;99.90
16767;DHT22;8501;49.926;8.404;2024-03-02T00:36:12;5.80;99.90
16767;DHT22;8501;49.926;8.404;2024-03-02T00:38:56;5.70;99.90
16767;DHT22;8501;49.926;8.404;2024-03-02T00:41:28;5.70;99.90
16767;DHT22;8501;49.926;8.404;2024-03-02T00:46:28;5.70;99.90
16767;DHT22;8501;49.926;8.404;2024-03-02T00:48:59;5.60;99.90
16767;DHT22;8501;49.926;8.404;2024-03-02T00:51:27;5.70;99.90
16767;DHT22;8501;49.926;8.404;2024-03-02T00:53:54;5.60;99.90
16767;DHT22;8501;49.926;8.404;2024-03-02T00:56:24;5.60;99.90
16767;DHT22;8501;49.926;8.404;2024-03-02T00:58:50;5.60;99.90
16767;DHT22;8501;49.926;8.404;2024-03-02T01:01:16;5.60;99.90
16767;DHT22;8501;49.926;8.404;2024-03-02T01:03:42;5.50;99.90
16767;DHT22;8501;49.926;8.404;2024-03-02T01:06:08;5.50;99.90
16767;DHT22;8501;49.926;8.404;2024-03-02T01:08:35;5.50;99.90
16767;DHT22;8501;49.926;8.404;2024-03-02T01:11:01;5.50;99.90
16767;DHT22;8501;49.926;8.404;2024-03-02T01:13:27;5.40;99.90
16767;DHT22;8501;49.926;8.404;2024-03-02T01:15:53;5.40;99.90
16767;DHT22;8501;49.926;8.404;2024-03-02T01:18:18;5.30;99.90
16767;DHT22;8501;49.926;8.404;2024-03-02T01:20:44;5.30;99.90
16767;DHT22;8501;49.926;8.404;2024-03-02T01:23:10;5.30;99.90
16767;DHT22;8501;49.926;8.404;2024-03-02T01:25:35;5.30;99.90
16767;DHT22;8501;49.926;8.404;2024-03-02T01:28:01;5.30;99.90
16767;DHT22;8501;49.926;8.404;2024-03-02T01:30:26;5.40;99.90
16767;DHT22;8501;49.926;8.404;2024-03-02T01:32:52;5.50;99.90
16767;DHT22;8501;49.926;8.404;2024-03-02T01:35:18;5.50;99.90
16767;DHT22;8501;49.926;8.404;2024-03-02T01:37:43;5.50;99.90
16767;DHT22;8501;49.926;8.404;2024-03-02T01:40:09;5.40;99.90
16767;DHT22;8501;49.926;8.404;2024-03-02T01:42:37;5.40;99.90
16767;DHT22;8501;49.926;8.404;2024-03-02T01:45:06;5.40;99.90
16767;DHT22;8501;49.926;8.404;2024-03-02T01:47:32;5.40;99.90
16767;DHT22;8501;49.926;8.404;2024-03-02T01:49:58;5.30;99.90
16767;DHT22;8501;49.926;8.404;2024-03-02T01:52:24;5.30;99.90
16767;DHT22;8501;49.926;8.404;2024-03-02T01:54:50;5.30;99.90
16767;DHT22;8501;49.926;8.404;2024-03-02T01:57:15;5.30;99.90
16767;DHT22;8501;49.926;8.404;2024-03-02T01:59:41;5.30;99.90
16767;DHT22;8501;49.926;8.404;2024-03-02T02:02:07;5.30;99.90
16767;DHT22;8501;49.926;8.404;2024-03-02T02:04:33;5.30;99.90
16767;DHT22;8501;49.926;8.404;2024-03-02T02:06:59;5.30;99.90
16767;DHT22;8501;49.926;8.404;2024-03-02T02:09:24;5.30;99.90
16767;DHT22;8501;49.926;8.404;2024-03-02T02:11:51;5.30;99.90
16767;DHT22;8501;49.926;8.404;2024-03-02T02:14:16;5.20;99.90
16767;DHT22;8501;49.926;8.404;2024-03-02T02:16:42;5.20;99.90
16767;DHT22;8501;49.926;8.404;2024-03-02T02:19:08;5.30;99.90
16767;DHT22;8501;49.926;8.404;2024-03-02T02:21:33;5.30;99.90
16767;DHT22;8501;49.926;8.404;2024-03-02T02:23:59;5.30;99.90
16767;DHT22;8501;49.926;8.404;2024-03-02T02:26:24;5.30;99.90
16767;DHT22;8501;49.926;8.404;2024-03-02T02:28:50;5.20;99.90
16767;DHT22;8501;49.926;8.404;2024-03-02T02:31:16;5.20;99.90
16767;DHT22;8501;49.926;8.404;2024-03-02T02:33:42;5.30;99.90
16767;DHT22;8501;49.926;8.404;2024-03-02T02:36:07;5.30;99.90
16767;DHT22;8501;49.926;8.404;2024-03-02T02:38:36;5.20;99.90
16767;DHT22;8501;49.926;8.404;2024-03-02T02:41:03;5.10;99.90
16767;DHT22;8501;49.926;8.404;2024-03-02T02:43:29;5.10;99.90
16767;DHT22;8501;49.926;8.404;2024-03-02T02:45:54;5.20;99.90
16767;DHT22;8501;49.926;8.404;2024-03-02T02:48:20;5.10;99.90
16767;DHT22;8501;49.926;8.404;2024-03-02T02:50:45;5.20;99.90
16767;DHT22;8501;49.926;8.404;2024-03-02T02:53:11;5.20;99.90
16767;DHT22;8501;49.926;8.404;2024-03-02T02:55:37;5.20;99.90
16767;DHT22;8501;49.926;8.404;2024-03-02T02:58:06;5.20;99.90
16767;DHT22;8501;49.926;8.404;2024-03-02T03:00:32;5.20;99.90
16767;DHT22;8501;49.926;8.404;2024-03-02T03:02:58;5.10;99.90
16767;DHT22;8501;49.926;8.404;2024-03-02T03:05:23;5.10;99.90
16767;DHT22;8501;49.926;8.404;2024-03-02T03:07:49;5.10;99.90
16767;DHT22;8501;49.926;8.404;2024-03-02T03:10:15;5.10;99.90
16767;DHT22;8501;49.926;8.404;2024-03-02T03:12:41;5.10;99.90
16767;DHT22;8501;49.926;8.404;2024-03-02T03:15:08;5.10;99.90
16767;DHT22;8501;49.926;8.404;2024-03-02T03:17:34;5.00;99.90
16767;DHT22;8501;49.926;8.404;2024-03-02T03:20:00;5.00;99.90
16767;DHT22;8501;49.926;8.404;2024-03-02T03:22:26;5.00;99.90
16767;DHT22;8501;49.926;8.404;2024-03-02T03:24:52;5.00;99.90
16767;DHT22;8501;49.926;8.404;2024-03-02T03:27:18;5.00;99.90
16767;DHT22;8501;49.926;8.404;2024-03-02T03:29:43;5.10;99.90
16767;DHT22;8501;49.926;8.404;2024-03-02T03:32:08;5.00;99.90
16767;DHT22;8501;49.926;8.404;2024-03-02T03:34:34;5.00;99.90
16767;DHT22;8501;49.926;8.404;2024-03-02T03:37:00;5.00;99.90
16767;DHT22;8501;49.926;8.404;2024-03-02T03:39:25;5.00;99.90
16767;DHT22;8501;49.926;8.404;2024-03-02T03:41:51;4.90;99.90
16767;DHT22;8501;49.926;8.404;2024-03-02T03:44:16;4.90;99.90
16767;DHT22;8501;49.926;8.404;2024-03-02T03:46:42;4.90;99.90
16767;DHT22;8501;49.926;8.404;2024-03-02T03:49:07;4.90;99.90
16767;DHT22;8501;49.926;8.404;2024-03-02T03:51:33;4.90;99.90
16767;DHT22;8501;49.926;8.404;2024-03-02T03:53:59;5.00;99.90
16767;DHT22;8501;49.926;8.404;2024-03-02T03:56:25;5.00;99.90
16767;DHT22;8501;49.926;8.404;2024-03-02T03:58:50;5.00;99.90
16767;DHT22;8501;49.926;8.404;2024-03-02T04:01:16;5.00;99.90
16767;DHT22;8501;49.926;8.404;2024-03-02T04:03:41;5.00;99.90
16767;DHT22;8501;49.926;8.404;2024-03-02T04:06:07;5.00;99.90
16767;DHT22;8501;49.926;8.404;2024-03-02T04:08:32;4.90;99.90
16767;DHT22;8501;49.926;8.404;2024-03-02T04:10:58;4.90;99.90
16767;DHT22;8501;49.926;8.404;2024-03-02T04:13:23;4.90;99.90
16767;DHT22;8501;49.926;8.404;2024-03-02T04:15:49;4.90;99.90
16767;DHT22;8501;49.926;8.404;2024-03-02T04:18:14;4.90;99.90
16767;DHT22;8501;49.926;8.404;2024-03-02T04:20:40;4.90;99.90
16767;DHT22;8501;49.926;8.404;2024-03-02T04:23:05;4.90;99.90
16767;DHT22;8501;49.926;8.404;2024-03-02T04:25:31;4.90;99.90
16767;DHT22;8501;49.926;8.404;2024-03-02T04:27:56;4.90;99.90
16767;DHT22;8501;49.926;8.404;2024-03-02T04:30:22;4.80;99.90
16767;DHT22;8501;49.926;8.404;2024-03-02T04:32:47;4.80;99.90
16767;DHT22;8501;49.926;8.404;2024-03-02T04:35:14;4.80;99.90
16767;DHT22;8501;49.926;8.404;2024-03-02T04:37:40;4.80;99.90
16767;DHT22;8501;49.926;8.404;2024-03-02T04:40:06;4.70;99.90
16767;DHT22;8501;49.926;8.404;2024-03-02T04:42:35;4.80;99.90
16767;DHT22;8501;49.926;8.404;2024-03-02T04:45:01;4.80;99.90
16767;DHT22;8501;49.926;8.404;2024-03-02T04:47:26;4.70;99.90
16767;DHT22;8501;49.926;8.404;2024-03-02T04:49:52;4.70;99.90
16767;DHT22;8501;49.926;8.404;2024-03-02T04:52:17;4.70;99.90
16767;DHT22;8501;49.926;8.404;2024-03-02T04:54:43;4.60;99.90
16767;DHT22;8501;49.926;8.404;2024-03-02T04:57:27;4.50;99.90
16767;DHT22;8501;49.926;8.404;2024-03-02T04:59:53;4.60;99.90
16767;DHT22;8501;49.926;8.404;2024-03-02T05:02:18;4.50;99.90
16767;DHT22;8501;49.926;8.404;2024-03-02T05:04:44;4.60;99.90
16767;DHT22;8501;49.926;8.404;2024-03-02T05:07:10;4.60;99.90
16767;DHT22;8501;49.926;8.404;2024-03-02T05:09:35;4.60;99.90
16767;DHT22;8501;49.926;8.404;2024-03-02T05:12:01;4.60;99.90
16767;DHT22;8501;49.926;8.404;2024-03-02T05:14:45;4.50;99.90
16767;DHT22;8501;49.926;8.404;2024-03-02T05:17:11;4.50;99.90
16767;DHT22;8501;49.926;8.404;2024-03-02T05:19:37;4.50;99.90
16767;DHT22;8501;49.926;8.404;2024-03-02T05:22:02;4.50;99.90
16767;DHT22;8501;49.926;8.404;2024-03-02T05:24:28;4.50;99.90
16767;DHT22;8501;49.926;8.404;2024-03-02T05:26:54;4.50;99.90
16767;DHT22;8501;49.926;8.404;2024-03-02T05:29:19;4.50;99.90
16767;DHT22;8501;49.926;8.404;2024-03-02T05:31:46;4.50;99.90
16767;DHT22;8501;49.926;8.404;2024-03-02T05:34:11;4.60;99.90
16767;DHT22;8501;49.926;8.404;2024-03-02T05:36:37;4.60;99.90
16767;DHT22;8501;49.926;8.404;2024-03-02T05:39:04;4.60;99.90
16767;DHT22;8501;49.926;8.404;2024-03-02T05:41:34;4.60;99.90
16767;DHT22;8501;49.926;8.404;2024-03-02T05:44:00;4.60;99.90
16767;DHT22;8501;49.926;8.404;2024-03-02T05:46:25;4.60;99.90
16767;DHT22;8501;49.926;8.404;2024-03-02T05:48:51;4.60;99.90
16767;DHT22;8501;49.926;8.404;2024-03-02T05:51:16;4.60;99.90
16767;DHT22;8501;49.926;8.404;2024-03-02T05:53:42;4.60;99.90
16767;DHT22;8501;49.926;8.404;2024-03-02T05:56:08;4.60;99.90
16767;DHT22;8501;49.926;8.404;2024-03-02T05:58:34;4.70;99.90
16767;DHT22;8501;49.926;8.404;2024-03-02T06:01:18;4.70;99.90
16767;DHT22;8501;49.926;8.404;2024-03-02T06:03:44;4.70;99.90
16767;DHT22;8501;49.926;8.404;2024-03-02T06:06:09;4.70;99.90
16767;DHT22;8501;49.926;8.404;2024-03-02T06:08:35;4.70;99.90
16767;DHT22;8501;49.926;8.404;2024-03-02T06:11:01;4.80;99.90
16767;DHT22;8501;49.926;8.404;2024-03-02T06:13:26;4.80;99.90
16767;DHT22;8501;49.926;8.404;2024-03-02T06:15:52;4.80;99.90
16767;DHT22;8501;49.926;8.404;2024-03-02T06:18:18;4.70;99.90
16767;DHT22;8501;49.926;8.404;2024-03-02T06:20:43;4.80;99.90
16767;DHT22;8501;49.926;8.404;2024-03-02T06:23:09;4.80;99.90
16767;DHT22;8501;49.926;8.404;2024-03-02T06:25:34;4.80;99.90
16767;DHT22;8501;49.926;8.404;2024-03-02T06:28:00;4.80;99.90
16767;DHT22;8501;49.926;8.404;2024-03-02T06:30:26;4.70;99.90
16767;DHT22;8501;49.926;8.404;2024-03-02T06:32:54;4.70;99.90
16767;DHT22;8501;49.926;8.404;2024-03-02T06:37:53;4.80;99.90
16767;DHT22;8501;49.926;8.404;2024-03-02T06:40:19;4.80;99.90
16767;DHT22;8501;49.926;8.404;2024-03-02T06:42:44;4.80;99.90
16767;DHT22;8501;49.926;8.404;2024-03-02T06:45:10;4.80;99.90
16767;DHT22;8501;49.926;8.404;2024-03-02T06:47:35;4.80;99.90
16767;DHT22;8501;49.926;8.404;2024-03-02T06:50:01;4.80;99.90
16767;DHT22;8501;49.926;8.404;2024-03-02T06:52:26;4.90;99.90
16767;DHT22;8501;49.926;8.404;2024-03-02T06:54:52;4.80;99.90
16767;DHT22;8501;49.926;8.404;2024-03-02T06:57:17;4.80;99.90
16767;DHT22;8501;49.926;8.404;2024-03-02T06:59:45;4.80;99.90
16767;DHT22;8501;49.926;8.404;2024-03-02T07:02:10;4.80;99.90
16767;DHT22;8501;49.926;8.404;2024-03-02T07:04:36;4.80;99.90
16767;DHT22;8501;49.926;8.404;2024-03-02T07:07:01;4.70;99.90
16767;DHT22;8501;49.926;8.404;2024-03-02T07:09:28;4.80;99.90
16767;DHT22;8501;49.926;8.404;2024-03-02T07:11:53;4.80;99.90
16767;DHT22;8501;49.926;8.404;2024-03-02T07:14:19;4.80;99.90
16767;DHT22;8501;49.926;8.404;2024-03-02T07:16:44;4.80;99.90
16767;DHT22;8501;49.926;8.404;2024-03-02T07:19:10;4.90;99.90
16767;DHT22;8501;49.926;8.404;2024-03-02T07:21:35;5.00;99.90
16767;DHT22;8501;49.926;8.404;2024-03-02T07:24:01;5.00;99.90
16767;DHT22;8501;49.926;8.404;2024-03-02T07:26:30;5.00;99.90
16767;DHT22;8501;49.926;8.404;2024-03-02T07:28:56;5.10;99.90
16767;DHT22;8501;49.926;8.404;2024-03-02T07:31:22;5.10;99.90
16767;DHT22;8501;49.926;8.404;2024-03-02T07:33:47;5.20;99.90
16767;DHT22;8501;49.926;8.404;2024-03-02T07:36:13;5.30;99.90
16767;DHT22;8501;49.926;8.404;2024-03-02T07:38:39;5.40;99.90
16767;DHT22;8501;49.926;8.404;2024-03-02T07:41:06;5.40;99.90
16767;DHT22;8501;49.926;8.404;2024-03-02T07:43:31;5.50;99.90
16767;DHT22;8501;49.926;8.404;2024-03-02T07:45:58;5.60;99.90
16767;DHT22;8501;49.926;8.404;2024-03-02T07:48:24;5.50;99.90
16767;DHT22;8501;49.926;8.404;2024-03-02T07:50:50;5.60;99.90
16767;DHT22;8501;49.926;8.404;2024-03-02T07:53:16;5.60;99.90
16767;DHT22;8501;49.926;8.404;2024-03-02T07:55:41;5.60;99.90
16767;DHT22;8501;49.926;8.404;2024-03-02T07:58:07;5.60;99.90
16767;DHT22;8501;49.926;8.404;2024-03-02T08:00:33;5.60;99.90
16767;DHT22;8501;49.926;8.404;2024-03-02T08:02:58;5.70;99.90
16767;DHT22;8501;49.926;8.404;2024-03-02T08:05:24;5.70;99.90
16767;DHT22;8501;49.926;8.404;2024-03-02T08:07:50;5.70;99.90
16767;DHT22;8501;49.926;8.404;2024-03-02T08:10:19;5.70;99.90
16767;DHT22;8501;49.926;8.404;2024-03-02T08:12:45;5.70;99.90
16767;DHT22;8501;49.926;8.404;2024-03-02T08:15:10;5.80;99.90
16767;DHT22;8501;49.926;8.404;2024-03-02T08:17:38;5.80;99.90
16767;DHT22;8501;49.926;8.404;2024-03-02T08:20:10;5.80;99.90
16767;DHT22;8501;49.926;8.404;2024-03-02T08:22:36;5.90;99.90
16767;DHT22;8501;49.926;8.404;2024-03-02T08:25:02;5.90;99.90
16767;DHT22;8501;49.926;8.404;2024-03-02T08:27:28;5.90;99.90
16767;DHT22;8501;49.926;8.404;2024-03-02T08:29:53;5.90;99.90
16767;DHT22;8501;49.926;8.404;2024-03-02T08:32:19;5.90;99.90
16767;DHT22;8501;49.926;8.404;2024-03-02T08:34:45;5.90;99.90
16767;DHT22;8501;49.926;8.404;2024-03-02T08:37:10;6.00;99.90
16767;DHT22;8501;49.926;8.404;2024-03-02T08:39:36;6.00;99.90
16767;DHT22;8501;49.926;8.404;2024-03-02T08:42:01;6.00;99.90
16767;DHT22;8501;49.926;8.404;2024-03-02T08:44:27;6.00;99.90
16767;DHT22;8501;49.926;8.404;2024-03-02T08:46:52;6.10;99.90
16767;DHT22;8501;49.926;8.404;2024-03-02T08:49:18;6.10;99.90
16767;DHT22;8501;49.926;8.404;2024-03-02T08:51:43;6.10;99.90
16767;DHT22;8501;49.926;8.404;2024-03-02T08:54:09;6.20;99.90
16767;DHT22;8501;49.926;8.404;2024-03-02T08:56:35;6.20;99.90
16767;DHT22;8501;49.926;8.404;2024-03-02T08:59:01;6.20;99.90
16767;DHT22;8501;49.926;8.404;2024-03-02T09:01:27;6.30;99.90
16767;DHT22;8501;49.926;8.404;2024-03-02T09:03:52;6.30;99.90
16767;DHT22;8501;49.926;8.404;2024-03-02T09:06:18;6.30;99.90
16767;DHT22;8501;49.926;8.404;2024-03-02T09:08:45;6.30;99.90
16767;DHT22;8501;49.926;8.404;2024-03-02T09:11:11;6.30;99.90
16767;DHT22;8501;49.926;8.404;2024-03-02T09:13:38;6.40;99.90
16767;DHT22;8501;49.926;8.404;2024-03-02T09:16:04;6.40;99.90
16767;DHT22;8501;49.926;8.404;2024-03-02T09:18:30;6.50;99.90
16767;DHT22;8501;49.926;8.404;2024-03-02T09:20:56;6.50;99.90
16767;DHT22;8501;49.926;8.404;2024-03-02T09:23:21;6.60;99.90
16767;DHT22;8501;49.926;8.404;2024-03-02T09:25:47;6.60;99.90
16767;DHT22;8501;49.926;8.404;2024-03-02T09:28:15;6.60;99.90
16767;DHT22;8501;49.926;8.404;2024-03-02T09:30:41;6.70;99.90
16767;DHT22;8501;49.926;8.404;2024-03-02T09:33:06;6.70;99.90
16767;DHT22;8501;49.926;8.404;2024-03-02T09:35:32;6.80;99.90
16767;DHT22;8501;49.926;8.404;2024-03-02T09:37:57;6.80;99.90
16767;DHT22;8501;49.926;8.404;2024-03-02T09:40:23;6.90;99.90
16767;DHT22;8501;49.926;8.404;2024-03-02T09:42:49;6.90;99.90
16767;DHT22;8501;49.926;8.404;2024-03-02T09:45:23;6.90;99.90
16767;DHT22;8501;49.926;8.404;2024-03-02T09:47:49;6.90;99.90
16767;DHT22;8501;49.926;8.404;2024-03-02T09:50:15;7.00;99.90
16767;DHT22;8501;49.926;8.404;2024-03-02T09:52:44;7.10;99.90
16767;DHT22;8501;49.926;8.404;2024-03-02T09:55:13;7.10;99.90
16767;DHT22;8501;49.926;8.404;2024-03-02T09:57:41;7.20;99.90
16767;DHT22;8501;49.926;8.404;2024-03-02T10:00:08;7.20;99.90
16767;DHT22;8501;49.926;8.404;2024-03-02T10:02:33;7.20;99.90
16767;DHT22;8501;49.926;8.404;2024-03-02T10:04:59;7.20;99.90
16767;DHT22;8501;49.926;8.404;2024-03-02T10:07:24;7.30;99.90
16767;DHT22;8501;49.926;8.404;2024-03-02T10:09:50;7.40;99.90
16767;DHT22;8501;49.926;8.404;2024-03-02T10:12:17;7.40;99.90
16767;DHT22;8501;49.926;8.404;2024-03-02T10:14:44;7.50;99.90
16767;DHT22;8501;49.926;8.404;2024-03-02T10:17:12;7.50;99.90
16767;DHT22;8501;49.926;8.404;2024-03-02T10:19:38;7.60;99.90
16767;DHT22;8501;49.926;8.404;2024-03-02T10:22:06;7.70;99.90
16767;DHT22;8501;49.926;8.404;2024-03-02T10:24:44;7.70;99.90
16767;DHT22;8501;49.926;8.404;2024-03-02T10:27:18;7.80;99.90
16767;DHT22;8501;49.926;8.404;2024-03-02T10:29:47;7.90;99.90
16767;DHT22;8501;49.926;8.404;2024-03-02T10:32:13;7.90;99.90
16767;DHT22;8501;49.926;8.404;2024-03-02T10:34:43;8.00;99.90
16767;DHT22;8501;49.926;8.404;2024-03-02T10:37:10;8.00;99.90
16767;DHT22;8501;49.926;8.404;2024-03-02T10:39:36;8.10;99.90
16767;DHT22;8501;49.926;8.404;2024-03-02T10:42:03;8.20;99.90
16767;DHT22;8501;49.926;8.404;2024-03-02T10:44:30;8.30;99.90
16767;DHT22;8501;49.926;8.404;2024-03-02T10:46:55;8.30;99.90
16767;DHT22;8501;49.926;8.404;2024-03-02T10:49:23;8.40;99.90
16767;DHT22;8501;49.926;8.404;2024-03-02T10:51:49;8.40;99.90
16767;DHT22;8501;49.926;8.404;2024-03-02T10:54:15;8.50;99.90
16767;DHT22;8501;49.926;8.404;2024-03-02T10:56:41;8.60;99.90
16767;DHT22;8501;49.926;8.404;2024-03-02T10:59:35;8.60;99.90
16767;DHT22;8501;49.926;8.404;2024-03-02T11:02:03;8.70;99.90
16767;DHT22;8501;49.926;8.404;2024-03-02T11:04:30;8.80;99.90
16767;DHT22;8501;49.926;8.404;2024-03-02T11:07:09;8.80;99.90
16767;DHT22;8501;49.926;8.404;2024-03-02T11:09:38;8.80;99.90
16767;DHT22;8501;49.926;8.404;2024-03-02T11:12:22;8.80;99.90
16767;DHT22;8501;49.926;8.404;2024-03-02T11:14:48;8.80;99.90
16767;DHT22;8501;49.926;8.404;2024-03-02T11:17:17;8.90;99.90
16767;DHT22;8501;49.926;8.404;2024-03-02T11:19:44;8.90;99.90
16767;DHT22;8501;49.926;8.404;2024-03-02T11:22:11;9.00;99.90
16767;DHT22;8501;49.926;8.404;2024-03-02T11:24:37;9.00;99.90
16767;DHT22;8501;49.926;8.404;2024-03-02T11:27:04;9.10;99.90
16767;DHT22;8501;49.926;8.404;2024-03-02T11:32:03;9.20;99.90
16767;DHT22;8501;49.926;8.404;2024-03-02T11:34:36;9.20;99.90
16767;DHT22;8501;49.926;8.404;2024-03-02T11:37:05;9.20;99.90
16767;DHT22;8501;49.926;8.404;2024-03-02T11:39:31;9.30;99.90
16767;DHT22;8501;49.926;8.404;2024-03-02T11:41:57;9.30;99.90
16767;DHT22;8501;49.926;8.404;2024-03-02T11:44:30;9.40;99.90
16767;DHT22;8501;49.926;8.404;2024-03-02T11:46:59;9.50;99.90
16767;DHT22;8501;49.926;8.404;2024-03-02T11:49:45;9.50;99.90
16767;DHT22;8501;49.926;8.404;2024-03-02T11:52:15;9.60;99.90
16767;DHT22;8501;49.926;8.404;2024-03-02T11:54:46;9.70;99.90
16767;DHT22;8501;49.926;8.404;2024-03-02T11:57:16;9.80;99.90
16767;DHT22;8501;49.926;8.404;2024-03-02T11:59:42;9.90;99.90
16767;DHT22;8501;49.926;8.404;2024-03-02T12:02:16;9.90;99.90
16767;DHT22;8501;49.926;8.404;2024-03-02T12:04:43;10.10;99.90
16767;DHT22;8501;49.926;8.404;2024-03-02T12:07:10;10.30;99.90
16767;DHT22;8501;49.926;8.404;2024-03-02T12:09:36;10.30;99.90
16767;DHT22;8501;49.926;8.404;2024-03-02T12:12:07;10.30;99.90
16767;DHT22;8501;49.926;8.404;2024-03-02T12:14:33;10.40;99.90
16767;DHT22;8501;49.926;8.404;2024-03-02T12:17:00;10.50;99.90
16767;DHT22;8501;49.926;8.404;2024-03-02T12:19:26;10.60;99.90
16767;DHT22;8501;49.926;8.404;2024-03-02T12:21:59;10.80;99.90
16767;DHT22;8501;49.926;8.404;2024-03-02T12:24:27;10.90;99.90
16767;DHT22;8501;49.926;8.404;2024-03-02T12:26:53;11.00;99.90
16767;DHT22;8501;49.926;8.404;2024-03-02T12:29:20;11.20;99.90
16767;DHT22;8501;49.926;8.404;2024-03-02T12:31:51;11.30;99.90
16767;DHT22;8501;49.926;8.404;2024-03-02T12:34:20;11.40;99.90
16767;DHT22;8501;49.926;8.404;2024-03-02T12:36:46;11.60;99.90
16767;DHT22;8501;49.926;8.404;2024-03-02T12:39:20;11.70;99.90
16767;DHT22;8501;49.926;8.404;2024-03-02T12:41:49;11.60;99.90
16767;DHT22;8501;49.926;8.404;2024-03-02T12:44:19;11.60;99.90
16767;DHT22;8501;49.926;8.404;2024-03-02T12:46:46;11.50;99.90
16767;DHT22;8501;49.926;8.404;2024-03-02T12:49:13;11.60;99.90
16767;DHT22;8501;49.926;8.404;2024-03-02T12:51:41;11.60;99.90
16767;DHT22;8501;49.926;8.404;2024-03-02T12:54:08;11.60;99.90
16767;DHT22;8501;49.926;8.404;2024-03-02T12:56:35;11.60;99.90
16767;DHT22;8501;49.926;8.404;2024-03-02T12:59:01;11.60;99.90
16767;DHT22;8501;49.926;8.404;2024-03-02T13:01:27;11.70;99.90
16767;DHT22;8501;49.926;8.404;2024-03-02T13:03:53;11.70;99.90
16767;DHT22;8501;49.926;8.404;2024-03-02T13:06:21;11.80;99.90
16767;DHT22;8501;49.926;8.404;2024-03-02T13:08:46;11.80;99.90
16767;DHT22;8501;49.926;8.404;2024-03-02T13:11:12;11.80;99.90
16767;DHT22;8501;49.926;8.404;2024-03-02T13:13:39;12.00;99.90
16767;DHT22;8501;49.926;8.404;2024-03-02T13:16:09;12.00;99.90
16767;DHT22;8501;49.926;8.404;2024-03-02T13:18:41;12.10;99.90
16767;DHT22;8501;49.926;8.404;2024-03-02T13:21:09;12.30;99.90
16767;DHT22;8501;49.926;8.404;2024-03-02T13:23:35;12.30;99.90
16767;DHT22;8501;49.926;8.404;2024-03-02T13:26:01;12.30;99.90
16767;DHT22;8501;49.926;8.404;2024-03-02T13:28:26;12.40;99.90
16767;DHT22;8501;49.926;8.404;2024-03-02T13:30:52;12.50;99.90
16767;DHT22;8501;49.926;8.404;2024-03-02T13:33:18;12.60;99.90
16767;DHT22;8501;49.926;8.404;2024-03-02T13:35:48;12.70;99.90
16767;DHT22;8501;49.926;8.404;2024-03-02T13:38:16;12.80;99.90
16767;DHT22;8501;49.926;8.404;2024-03-02T13:40:41;12.80;99.90
16767;DHT22;8501;49.926;8.404;2024-03-02T13:43:07;13.00;99.90
16767;DHT22;8501;49.926;8.404;2024-03-02T13:45:32;12.90;99.90
16767;DHT22;8501;49.926;8.404;2024-03-02T13:47:58;12.80;99.90
16767;DHT22;8501;49.926;8.404;2024-03-02T13:50:25;12.70;99.90
16767;DHT22;8501;49.926;8.404;2024-03-02T13:52:50;12.80;99.90
16767;DHT22;8501;49.926;8.404;2024-03-02T13:55:16;12.80;99.90
16767;DHT22;8501;49.926;8.404;2024-03-02T13:57:42;12.70;99.90
16767;DHT22;8501;49.926;8.404;2024-03-02T14:00:08;12.70;99.90
16767;DHT22;8501;49.926;8.404;2024-03-02T14:02:36;12.90;99.90
16767;DHT22;8501;49.926;8.404;2024-03-02T14:05:01;13.00;99.90
16767;DHT22;8501;49.926;8.404;2024-03-02T14:07:27;13.10;99.90
16767;DHT22;8501;49.926;8.404;2024-03-02T14:09:53;13.20;99.90
16767;DHT22;8501;49.926;8.404;2024-03-02T14:12:18;13.30;99.90
16767;DHT22;8501;49.926;8.404;2024-03-02T14:14:44;13.40;99.90
16767;DHT22;8501;49.926;8.404;2024-03-02T14:17:09;13.50;99.90
16767;DHT22;8501;49.926;8.404;2024-03-02T14:19:40;13.80;99.90
16767;DHT22;8501;49.926;8.404;2024-03-02T14:22:05;13.90;99.90
16767;DHT22;8501;49.926;8.404;2024-03-02T14:24:31;14.20;99.90
16767;DHT22;8501;49.926;8.404;2024-03-02T14:26:56;14.50;99.90
16767;DHT22;8501;49.926;8.404;2024-03-02T14:29:27;14.90;99.90
16767;DHT22;8501;49.926;8.404;2024-03-02T14:31:52;15.40;99.90
16767;DHT22;8501;49.926;8.404;2024-03-02T14:34:18;15.80;99.90
16767;DHT22;8501;49.926;8.404;2024-03-02T14:36:43;16.10;99.90
16767;DHT22;8501;49.926;8.404;2024-03-02T14:39:10;16.30;99.90
16767;DHT22;8501;49.926;8.404;2024-03-02T14:41:38;16.20;99.90
16767;DHT22;8501;49.926;8.404;2024-03-02T14:44:04;16.10;99.90
16767;DHT22;8501;49.926;8.404;2024-03-02T14:46:30;15.90;99.90
16767;DHT22;8501;49.926;8.404;2024-03-02T14:48:55;16.10;99.90
16767;DHT22;8501;49.926;8.404;2024-03-02T14:51:21;16.00;99.90
16767;DHT22;8501;49.926;8.404;2024-03-02T14:53:47;16.40;99.90
16767;DHT22;8501;49.926;8.404;2024-03-02T14:56:12;15.80;99.90
16767;DHT22;8501;49.926;8.404;2024-03-02T14:58:41;15.70;99.90
16767;DHT22;8501;49.926;8.404;2024-03-02T15:01:06;15.80;99.90
16767;DHT22;8501;49.926;8.404;2024-03-02T15:03:32;15.80;99.90
16767;DHT22;8501;49.926;8.404;2024-03-02T15:05:58;15.50;99.90
16767;DHT22;8501;49.926;8.404;2024-03-02T15:08:24;15.50;99.90
16767;DHT22;8501;49.926;8.404;2024-03-02T15:10:50;15.30;99.90
16767;DHT22;8501;49.926;8.404;2024-03-02T15:13:15;15.30;99.90
16767;DHT22;8501;49.926;8.404;2024-03-02T15:15:41;15.20;99.90
16767;DHT22;8501;49.926;8.404;2024-03-02T15:18:07;15.20;99.90
16767;DHT22;8501;49.926;8.404;2024-03-02T15:20:33;15.30;99.90
16767;DHT22;8501;49.926;8.404;2024-03-02T15:22:59;15.20;99.90
16767;DHT22;8501;49.926;8.404;2024-03-02T15:25:24;15.10;99.90
16767;DHT22;8501;49.926;8.404;2024-03-02T15:27:50;14.80;99.90
16767;DHT22;8501;49.926;8.404;2024-03-02T15:30:15;14.60;99.90
16767;DHT22;8501;49.926;8.404;2024-03-02T15:32:41;14.40;99.90
16767;DHT22;8501;49.926;8.404;2024-03-02T15:35:07;14.20;99.90
16767;DHT22;8501;49.926;8.404;2024-03-02T15:37:33;14.20;99.90
16767;DHT22;8501;49.926;8.404;2024-03-02T15:39:58;14.10;99.90
16767;DHT22;8501;49.926;8.404;2024-03-02T15:42:32;14.00;99.90
16767;DHT22;8501;49.926;8.404;2024-03-02T15:44:57;13.90;99.90
16767;DHT22;8501;49.926;8.404;2024-03-02T15:47:23;13.80;99.90
16767;DHT22;8501;49.926;8.404;2024-03-02T15:49:48;13.70;99.90
16767;DHT22;8501;49.926;8.404;2024-03-02T15:52:15;13.70;99.90
16767;DHT22;8501;49.926;8.404;2024-03-02T15:54:44;13.60;99.90
16767;DHT22;8501;49.926;8.404;2024-03-02T15:57:09;13.60;99.90
16767;DHT22;8501;49.926;8.404;2024-03-02T15:59:35;13.50;99.90
16767;DHT22;8501;49.926;8.404;2024-03-02T16:02:00;13.50;99.90